Capitol Logistics 364


KAFW
Fort Worth Alliance Airport
Fort Worth, Texas, US
KRIV
March Air Reserve Base
Riverside, California, US

Route Details

Aircraft Information
Primary: Boeing 767-300BDSF
Backup: Not Available
Route Data
Distance: 1001nm
Sched. Duration: 3h 00m
Avg. Duration: 2h 73m (-26m)
Times Flown: 5
Recm'd Route: SWABR5 DOSXX INK V94 TFD J169 TRM ARKOE1
Planned Altitude: 34,000ft
Origin Wx: KAFW 051453Z 19010KT 10SM FEW100 SCT160 BKN300 29/22 A2993 RMK AO2 SLP116 T02890217 53007 $
Dest. Wx: KRIV 051458Z 00000KT 3SM -DZ BR OVC004 16/15 A2984 RMK AO2A SLP096 P0000 60000 T01570147 51006
Notes:

Financial History
Total Freight: 405,389lbs
Average Load: 81,078lbs/flt
Fuel Used: 149,530lbs
Avg. Fuel Used: 29,906lbs/flt
Fuel Expense: $121,119
Avg. Fuel Expense: $24,224
Avg. Fuel Cost: $0.81/lbs
Total Gross Income: $560,312
Pilot Pay: $915
Total Expenses: $60,774
Total Revenue: $375,292
Average Revenue: $112,062.41